^^
Station Historical Data
Daily Summary for February 11, 2019 Units:  Both    English   Metric
« Previous Day
Next Day »
Daily Weekly Monthly Yearly Custom
  High: Low: Average:
Temperature: 8.7 °F /  -12.9 °C -9.7 °F /  -23.2 °C 1.9 °F /  -16.7 °C
Dew Point: 5.9 °F /  -14.5 °C -13.5 °F /  -25.3 °C -1.3 °F /  -18.5 °C
Humidity: 89% 83% 86%
Wind Speed: 19.0mph /  30.6km/h - 8.6mph /  13.8km/h
Wind Gust: 24.0mph /  38.6km/h - -
Wind- - SE
Pressure: 30.28 in /  1025.3 hPa 30.02 in /  1016.5 hPa -
Precipitation: 0.00 in /  0 mm    
Historical Graphs
 
 
Tabular Data for February 11, 2019
Time Temperature Dew Point Pressure Wind Wind Speed Wind Gust Humidity Rainfall Rate (Hourly) solar Conditions
00:04 -9.7 °F /  -23.2 °C -13.5 °F /  -25.3 °C 30.28in /  1025.3hPa ESE 7.0mph /  11.3km/h 14.0mph /  22.5km/h 83% 0.00in /  0mm 0.00 W/m2
00:09 -9.4 °F /  -23 °C -13.2 °F /  -25.1 °C 30.28in /  1025.3hPa ESE 10.0mph /  16.1km/h 13.0mph /  20.9km/h 83% 0.00in /  0mm 0.00 W/m2
00:14 -9.1 °F /  -22.8 °C -12.9 °F /  -24.9 °C 30.28in /  1025.3hPa ESE 7.0mph /  11.3km/h 12.0mph /  19.3km/h 83% 0.00in /  0mm 0.00 W/m2
00:19 -8.7 °F /  -22.6 °C -12.5 °F /  -24.7 °C 30.27in /  1024.9hPa East 8.0mph /  12.9km/h 13.0mph /  20.9km/h 83% 0.00in /  0mm 0.00 W/m2
00:24 -8.3 °F /  -22.4 °C -12.1 °F /  -24.5 °C 30.27in /  1024.9hPa ESE 10.0mph /  16.1km/h 13.0mph /  20.9km/h 83% 0.00in /  0mm 0.00 W/m2
00:29 -8.0 °F /  -22.2 °C -11.8 °F /  -24.3 °C 30.27in /  1024.9hPa East 8.0mph /  12.9km/h 12.0mph /  19.3km/h 83% 0.00in /  0mm 0.00 W/m2
00:34 -7.8 °F /  -22.1 °C -11.6 °F /  -24.2 °C 30.27in /  1024.9hPa ESE 11.0mph /  17.7km/h 13.0mph /  20.9km/h 83% 0.00in /  0mm 0.00 W/m2
00:39 -7.7 °F /  -22.1 °C -11.5 °F /  -24.2 °C 30.27in /  1024.9hPa East 9.0mph /  14.5km/h 13.0mph /  20.9km/h 83% 0.00in /  0mm 0.00 W/m2
00:44 -7.6 °F /  -22 °C -11.4 °F /  -24.1 °C 30.26in /  1024.6hPa ESE 5.0mph /  8km/h 13.0mph /  20.9km/h 83% 0.00in /  0mm 0.00 W/m2
00:49 -7.6 °F /  -22 °C -11.4 °F /  -24.1 °C 30.26in /  1024.6hPa ESE 8.0mph /  12.9km/h 13.0mph /  20.9km/h 83% 0.00in /  0mm 0.00 W/m2
00:54 -7.5 °F /  -21.9 °C -11.3 °F /  -24.1 °C 30.26in /  1024.6hPa East 10.0mph /  16.1km/h 11.0mph /  17.7km/h 83% 0.00in /  0mm 0.00 W/m2
00:59 -7.4 °F /  -21.9 °C -11.2 °F /  -24 °C 30.26in /  1024.6hPa East 9.0mph /  14.5km/h 14.0mph /  22.5km/h 83% 0.00in /  0mm 0.00 W/m2
01:04 -7.4 °F /  -21.9 °C -11.2 °F /  -24 °C 30.25in /  1024.3hPa ESE 8.0mph /  12.9km/h 14.0mph /  22.5km/h 83% 0.00in /  0mm 0.00 W/m2
01:09 -7.5 °F /  -21.9 °C -11.3 °F /  -24.1 °C 30.25in /  1024.3hPa ESE 10.0mph /  16.1km/h 14.0mph /  22.5km/h 83% 0.00in /  0mm 0.00 W/m2
01:14 -7.5 °F /  -21.9 °C -11.3 °F /  -24.1 °C 30.25in /  1024.3hPa ESE 12.0mph /  19.3km/h 14.0mph /  22.5km/h 83% 0.00in /  0mm 0.00 W/m2
01:19 -7.6 °F /  -22 °C -11.4 °F /  -24.1 °C 30.25in /  1024.3hPa ESE 8.0mph /  12.9km/h 15.0mph /  24.1km/h 83% 0.00in /  0mm 0.00 W/m2
01:24 -7.6 °F /  -22 °C -11.4 °F /  -24.1 °C 30.25in /  1024.3hPa East 10.0mph /  16.1km/h 15.0mph /  24.1km/h 83% 0.00in /  0mm 0.00 W/m2
01:29 -7.6 °F /  -22 °C -11.4 °F /  -24.1 °C 30.25in /  1024.3hPa East 11.0mph /  17.7km/h 15.0mph /  24.1km/h 83% 0.00in /  0mm 0.00 W/m2
01:34 -7.7 °F /  -22.1 °C -11.5 °F /  -24.2 °C 30.25in /  1024.3hPa East 14.0mph /  22.5km/h 15.0mph /  24.1km/h 83% 0.00in /  0mm 0.00 W/m2
01:39 -7.7 °F /  -22.1 °C -11.5 °F /  -24.2 °C 30.24in /  1023.9hPa East 10.0mph /  16.1km/h 16.0mph /  25.7km/h 83% 0.00in /  0mm 0.00 W/m2
01:44 -7.8 °F /  -22.1 °C -11.6 °F /  -24.2 °C 30.24in /  1023.9hPa East 9.0mph /  14.5km/h 16.0mph /  25.7km/h 83% 0.00in /  0mm 0.00 W/m2
01:49 -7.8 °F /  -22.1 °C -11.6 °F /  -24.2 °C 30.24in /  1023.9hPa East 9.0mph /  14.5km/h 16.0mph /  25.7km/h 83% 0.00in /  0mm 0.00 W/m2
01:54 -7.7 °F /  -22.1 °C -11.5 °F /  -24.2 °C 30.23in /  1023.6hPa East 10.0mph /  16.1km/h 13.0mph /  20.9km/h 83% 0.00in /  0mm 0.00 W/m2
01:59 -7.6 °F /  -22 °C -11.4 °F /  -24.1 °C 30.23in /  1023.6hPa East 14.0mph /  22.5km/h 14.0mph /  22.5km/h 83% 0.00in /  0mm 0.00 W/m2
02:04 -7.6 °F /  -22 °C -11.4 °F /  -24.1 °C 30.22in /  1023.2hPa East 11.0mph /  17.7km/h 15.0mph /  24.1km/h 83% 0.00in /  0mm 0.00 W/m2
02:09 -7.5 °F /  -21.9 °C -11.3 °F /  -24.1 °C 30.21in /  1022.9hPa East 14.0mph /  22.5km/h 17.0mph /  27.4km/h 83% 0.00in /  0mm 0.00 W/m2
02:14 -7.5 °F /  -21.9 °C -11.3 °F /  -24.1 °C 30.21in /  1022.9hPa East 13.0mph /  20.9km/h 17.0mph /  27.4km/h 83% 0.00in /  0mm 0.00 W/m2
02:19 -7.4 °F /  -21.9 °C -11.2 °F /  -24 °C 30.21in /  1022.9hPa ESE 10.0mph /  16.1km/h 16.0mph /  25.7km/h 83% 0.00in /  0mm 0.00 W/m2
02:24 -7.3 °F /  -21.8 °C -11.1 °F /  -23.9 °C 30.20in /  1022.6hPa ESE 10.0mph /  16.1km/h 15.0mph /  24.1km/h 83% 0.00in /  0mm 0.00 W/m2
02:29 -7.2 °F /  -21.8 °C -11.0 °F /  -23.9 °C 30.20in /  1022.6hPa ENE 10.0mph /  16.1km/h 16.0mph /  25.7km/h 83% 0.00in /  0mm 0.00 W/m2
02:34 -7.1 °F /  -21.7 °C -10.9 °F /  -23.8 °C 30.20in /  1022.6hPa ENE 12.0mph /  19.3km/h 18.0mph /  29km/h 83% 0.00in /  0mm 0.00 W/m2
02:39 -7.2 °F /  -21.8 °C -11.0 °F /  -23.9 °C 30.20in /  1022.6hPa East 14.0mph /  22.5km/h 18.0mph /  29km/h 83% 0.00in /  0mm 0.00 W/m2
02:44 -7.5 °F /  -21.9 °C -11.3 °F /  -24.1 °C 30.20in /  1022.6hPa ENE 12.0mph /  19.3km/h 19.0mph /  30.6km/h 83% 0.00in /  0mm 0.00 W/m2
02:49 -7.6 °F /  -22 °C -11.4 °F /  -24.1 °C 30.20in /  1022.6hPa East 13.0mph /  20.9km/h 20.0mph /  32.2km/h 83% 0.00in /  0mm 0.00 W/m2
02:54 -7.7 °F /  -22.1 °C -11.5 °F /  -24.2 °C 30.20in /  1022.6hPa East 9.0mph /  14.5km/h 20.0mph /  32.2km/h 83% 0.00in /  0mm 0.00 W/m2
02:59 -7.8 °F /  -22.1 °C -11.6 °F /  -24.2 °C 30.21in /  1022.9hPa East 14.0mph /  22.5km/h 18.0mph /  29km/h 83% 0.00in /  0mm 0.00 W/m2
03:04 -7.7 °F /  -22.1 °C -11.5 °F /  -24.2 °C 30.21in /  1022.9hPa ENE 9.0mph /  14.5km/h 17.0mph /  27.4km/h 83% 0.00in /  0mm 0.00 W/m2
03:09 -7.6 °F /  -22 °C -11.4 °F /  -24.1 °C 30.20in /  1022.6hPa East 11.0mph /  17.7km/h 16.0mph /  25.7km/h 83% 0.00in /  0mm 0.00 W/m2
03:14 -7.3 °F /  -21.8 °C -11.1 °F /  -23.9 °C 30.20in /  1022.6hPa East 13.0mph /  20.9km/h 16.0mph /  25.7km/h 83% 0.00in /  0mm 0.00 W/m2
03:19 -7.1 °F /  -21.7 °C -10.9 °F /  -23.8 °C 30.21in /  1022.9hPa East 14.0mph /  22.5km/h 15.0mph /  24.1km/h 83% 0.00in /  0mm 0.00 W/m2
03:24 -6.9 °F /  -21.6 °C -10.5 °F /  -23.6 °C 30.20in /  1022.6hPa ENE 10.0mph /  16.1km/h 16.0mph /  25.7km/h 84% 0.00in /  0mm 0.00 W/m2
03:29 -6.8 °F /  -21.6 °C -10.4 °F /  -23.6 °C 30.20in /  1022.6hPa East 14.0mph /  22.5km/h 17.0mph /  27.4km/h 84% 0.00in /  0mm 0.00 W/m2
03:34 -6.6 °F /  -21.4 °C -10.2 °F /  -23.4 °C 30.19in /  1022.2hPa East 13.0mph /  20.9km/h 17.0mph /  27.4km/h 84% 0.00in /  0mm 0.00 W/m2
03:39 -6.5 °F /  -21.4 °C -10.1 °F /  -23.4 °C 30.19in /  1022.2hPa East 8.0mph /  12.9km/h 19.0mph /  30.6km/h 84% 0.00in /  0mm 0.00 W/m2
03:44 -6.4 °F /  -21.3 °C -10.0 °F /  -23.3 °C 30.18in /  1021.9hPa East 16.0mph /  25.7km/h 21.0mph /  33.8km/h 84% 0.00in /  0mm 0.00 W/m2
03:49 -6.3 °F /  -21.3 °C -9.9 °F /  -23.3 °C 30.18in /  1021.9hPa East 14.0mph /  22.5km/h 21.0mph /  33.8km/h 84% 0.00in /  0mm 0.00 W/m2
03:54 -6.2 °F /  -21.2 °C -9.8 °F /  -23.2 °C 30.17in /  1021.6hPa East 15.0mph /  24.1km/h 18.0mph /  29km/h 84% 0.00in /  0mm 0.00 W/m2
03:59 -5.9 °F /  -21.1 °C -9.5 °F /  -23.1 °C 30.16in /  1021.2hPa East 16.0mph /  25.7km/h 22.0mph /  35.4km/h 84% 0.00in /  0mm 0.00 W/m2
04:04 -5.7 °F /  -20.9 °C -9.3 °F /  -22.9 °C 30.16in /  1021.2hPa ENE 11.0mph /  17.7km/h 22.0mph /  35.4km/h 84% 0.00in /  0mm 0.00 W/m2
04:09 -5.6 °F /  -20.9 °C -9.2 °F /  -22.9 °C 30.15in /  1020.9hPa East 19.0mph /  30.6km/h 20.0mph /  32.2km/h 84% 0.00in /  0mm 0.00 W/m2
04:14 -5.3 °F /  -20.7 °C -8.9 °F /  -22.7 °C 30.15in /  1020.9hPa ENE 14.0mph /  22.5km/h 20.0mph /  32.2km/h 84% 0.00in /  0mm 0.00 W/m2
04:19 -5.1 °F /  -20.6 °C -8.7 °F /  -22.6 °C 30.14in /  1020.5hPa ENE 13.0mph /  20.9km/h 22.0mph /  35.4km/h 84% 0.00in /  0mm 0.00 W/m2
04:24 -4.8 °F /  -20.4 °C -8.4 °F /  -22.4 °C 30.14in /  1020.5hPa East 11.0mph /  17.7km/h 22.0mph /  35.4km/h 84% 0.00in /  0mm 0.00 W/m2
04:29 -4.5 °F /  -20.3 °C -8.1 °F /  -22.3 °C 30.13in /  1020.2hPa East 16.0mph /  25.7km/h 21.0mph /  33.8km/h 84% 0.00in /  0mm 0.00 W/m2
04:34 -4.4 °F /  -20.2 °C -8.0 °F /  -22.2 °C 30.12in /  1019.9hPa ENE 15.0mph /  24.1km/h 20.0mph /  32.2km/h 84% 0.00in /  0mm 0.00 W/m2
04:39 -4.2 °F /  -20.1 °C -7.8 °F /  -22.1 °C 30.11in /  1019.5hPa ENE 13.0mph /  20.9km/h 19.0mph /  30.6km/h 84% 0.00in /  0mm 0.00 W/m2
04:44 -4.3 °F /  -20.2 °C -7.9 °F /  -22.2 °C 30.11in /  1019.5hPa ENE 18.0mph /  29km/h 22.0mph /  35.4km/h 84% 0.00in /  0mm 0.00 W/m2
04:49 -4.1 °F /  -20.1 °C -7.7 °F /  -22.1 °C 30.11in /  1019.5hPa East 13.0mph /  20.9km/h 22.0mph /  35.4km/h 84% 0.00in /  0mm 0.00 W/m2
04:54 -3.9 °F /  -19.9 °C -7.3 °F /  -21.8 °C 30.11in /  1019.5hPa East 17.0mph /  27.4km/h 21.0mph /  33.8km/h 85% 0.00in /  0mm 0.00 W/m2
04:59 -3.6 °F /  -19.8 °C -7.0 °F /  -21.7 °C 30.10in /  1019.2hPa East 15.0mph /  24.1km/h 21.0mph /  33.8km/h 85% 0.00in /  0mm 0.00 W/m2
05:04 -3.5 °F /  -19.7 °C -7.1 °F /  -21.7 °C 30.10in /  1019.2hPa East 11.0mph /  17.7km/h 24.0mph /  38.6km/h 84% 0.00in /  0mm 0.00 W/m2
05:09 -3.3 °F /  -19.6 °C -6.7 °F /  -21.5 °C 30.10in /  1019.2hPa East 15.0mph /  24.1km/h 24.0mph /  38.6km/h 85% 0.00in /  0mm 0.00 W/m2
05:14 -3.1 °F /  -19.5 °C -6.5 °F /  -21.4 °C 30.11in /  1019.5hPa East 13.0mph /  20.9km/h 23.0mph /  37km/h 85% 0.00in /  0mm 0.00 W/m2
05:19 -2.8 °F /  -19.3 °C -6.2 °F /  -21.2 °C 30.10in /  1019.2hPa ESE 9.0mph /  14.5km/h 20.0mph /  32.2km/h 85% 0.00in /  0mm 0.00 W/m2
05:24 -2.5 °F /  -19.2 °C -5.9 °F /  -21.1 °C 30.10in /  1019.2hPa ESE 12.0mph /  19.3km/h 21.0mph /  33.8km/h 85% 0.00in /  0mm 0.00 W/m2
05:29 -2.1 °F /  -18.9 °C -5.5 °F /  -20.8 °C 30.10in /  1019.2hPa ESE 12.0mph /  19.3km/h 21.0mph /  33.8km/h 85% 0.00in /  0mm 0.00 W/m2
05:34 -1.9 °F /  -18.8 °C -5.3 °F /  -20.7 °C 30.10in /  1019.2hPa ESE 9.0mph /  14.5km/h 18.0mph /  29km/h 85% 0.00in /  0mm 0.00 W/m2
05:39 -1.7 °F /  -18.7 °C -5.1 °F /  -20.6 °C 30.10in /  1019.2hPa ESE 9.0mph /  14.5km/h 16.0mph /  25.7km/h 85% 0.00in /  0mm 0.00 W/m2
05:44 -1.5 °F /  -18.6 °C -4.9 °F /  -20.5 °C 30.10in /  1019.2hPa ESE 10.0mph /  16.1km/h 17.0mph /  27.4km/h 85% 0.00in /  0mm 0.00 W/m2
05:49 -1.3 °F /  -18.5 °C -4.7 °F /  -20.4 °C 30.10in /  1019.2hPa ESE 9.0mph /  14.5km/h 17.0mph /  27.4km/h 85% 0.00in /  0mm 0.00 W/m2
05:54 -1.2 °F /  -18.4 °C -4.6 °F /  -20.3 °C 30.10in /  1019.2hPa ESE 10.0mph /  16.1km/h 17.0mph /  27.4km/h 85% 0.00in /  0mm 0.00 W/m2
05:59 -0.9 °F /  -18.3 °C -4.3 °F /  -20.2 °C 30.10in /  1019.2hPa ESE 15.0mph /  24.1km/h 17.0mph /  27.4km/h 85% 0.00in /  0mm 0.00 W/m2
06:04 -0.8 °F /  -18.2 °C -4.2 °F /  -20.1 °C 30.10in /  1019.2hPa East 15.0mph /  24.1km/h 18.0mph /  29km/h 85% 0.00in /  0mm 0.00 W/m2
06:09 -0.7 °F /  -18.2 °C -4.1 °F /  -20.1 °C 30.10in /  1019.2hPa ESE 12.0mph /  19.3km/h 18.0mph /  29km/h 85% 0.00in /  0mm 0.00 W/m2
06:14 -0.6 °F /  -18.1 °C -4.0 °F /  -20 °C 30.10in /  1019.2hPa East 15.0mph /  24.1km/h 17.0mph /  27.4km/h 85% 0.00in /  0mm 0.00 W/m2
06:19 -0.5 °F /  -18.1 °C -3.9 °F /  -19.9 °C 30.10in /  1019.2hPa ESE 10.0mph /  16.1km/h 16.0mph /  25.7km/h 85% 0.00in /  0mm 0.00 W/m2
06:24 -0.5 °F /  -18.1 °C -3.9 °F /  -19.9 °C 30.10in /  1019.2hPa ESE 11.0mph /  17.7km/h 16.0mph /  25.7km/h 85% 0.00in /  0mm 0.00 W/m2
06:29 -0.5 °F /  -18.1 °C -3.9 °F /  -19.9 °C 30.10in /  1019.2hPa ESE 11.0mph /  17.7km/h 16.0mph /  25.7km/h 85% 0.00in /  0mm 0.00 W/m2
06:34 -0.5 °F /  -18.1 °C -3.9 °F /  -19.9 °C 30.10in /  1019.2hPa SE 9.0mph /  14.5km/h 16.0mph /  25.7km/h 85% 0.00in /  0mm 0.00 W/m2
06:39 -0.5 °F /  -18.1 °C -3.9 °F /  -19.9 °C 30.10in /  1019.2hPa ESE 10.0mph /  16.1km/h 16.0mph /  25.7km/h 85% 0.00in /  0mm 0.00 W/m2
06:44 -0.4 °F /  -18 °C -3.8 °F /  -19.9 °C 30.09in /  1018.8hPa ESE 13.0mph /  20.9km/h 16.0mph /  25.7km/h 85% 0.00in /  0mm 0.00 W/m2
06:49 -0.4 °F /  -18 °C -3.8 °F /  -19.9 °C 30.09in /  1018.8hPa SE 12.0mph /  19.3km/h 18.0mph /  29km/h 85% 0.00in /  0mm 0.00 W/m2
06:54 -0.5 °F /  -18.1 °C -3.9 °F /  -19.9 °C 30.09in /  1018.8hPa ESE 14.0mph /  22.5km/h 18.0mph /  29km/h 85% 0.00in /  0mm 0.00 W/m2
06:59 -0.4 °F /  -18 °C -3.8 °F /  -19.9 °C 30.09in /  1018.8hPa SE 9.0mph /  14.5km/h 17.0mph /  27.4km/h 85% 0.00in /  0mm 0.00 W/m2
07:04 -0.3 °F /  -17.9 °C -3.5 °F /  -19.7 °C 30.09in /  1018.8hPa ESE 11.0mph /  17.7km/h 18.0mph /  29km/h 86% 0.00in /  0mm 0.00 W/m2
07:09 -0.4 °F /  -18 °C -3.6 °F /  -19.8 °C 30.09in /  1018.8hPa East 18.0mph /  29km/h 18.0mph /  29km/h 86% 0.00in /  0mm 0.00 W/m2
07:14 -0.3 °F /  -17.9 °C -3.7 °F /  -19.8 °C 30.08in /  1018.5hPa East 18.0mph /  29km/h 22.0mph /  35.4km/h 85% 0.00in /  0mm 0.00 W/m2
07:19 -0.2 °F /  -17.9 °C -3.6 °F /  -19.8 °C 30.08in /  1018.5hPa ESE 15.0mph /  24.1km/h 23.0mph /  37km/h 85% 0.00in /  0mm 0.00 W/m2
07:24 -0.2 °F /  -17.9 °C -3.6 °F /  -19.8 °C 30.08in /  1018.5hPa ESE 10.0mph /  16.1km/h 23.0mph /  37km/h 85% 0.00in /  0mm 0.00 W/m2
07:29 -0.1 °F /  -17.8 °C -3.5 °F /  -19.7 °C 30.08in /  1018.5hPa ESE 8.0mph /  12.9km/h 19.0mph /  30.6km/h 85% 0.00in /  0mm 0.00 W/m2
07:34 0.0 °F /  -17.8 °C -3.2 °F /  -19.6 °C 30.07in /  1018.2hPa East 11.0mph /  17.7km/h 19.0mph /  30.6km/h 86% 0.00in /  0mm 0.00 W/m2
07:39 0.1 °F /  -17.7 °C -3.1 °F /  -19.5 °C 30.07in /  1018.2hPa East 10.0mph /  16.1km/h 19.0mph /  30.6km/h 86% 0.00in /  0mm 0.00 W/m2
07:44 0.1 °F /  -17.7 °C -3.1 °F /  -19.5 °C 30.08in /  1018.5hPa East 18.0mph /  29km/h 22.0mph /  35.4km/h 86% 0.00in /  0mm 0.00 W/m2
07:49 0.2 °F /  -17.7 °C -3.0 °F /  -19.4 °C 30.07in /  1018.2hPa East 15.0mph /  24.1km/h 22.0mph /  35.4km/h 86% 0.00in /  0mm 0.00 W/m2
07:54 0.3 °F /  -17.6 °C -2.9 °F /  -19.4 °C 30.07in /  1018.2hPa East 11.0mph /  17.7km/h 22.0mph /  35.4km/h 86% 0.00in /  0mm 0.00 W/m2
07:59 0.4 °F /  -17.6 °C -2.8 °F /  -19.3 °C 30.07in /  1018.2hPa ESE 17.0mph /  27.4km/h 22.0mph /  35.4km/h 86% 0.00in /  0mm 0.00 W/m2
08:04 0.4 °F /  -17.6 °C -2.8 °F /  -19.3 °C 30.07in /  1018.2hPa ESE 15.0mph /  24.1km/h 19.0mph /  30.6km/h 86% 0.00in /  0mm 0.00 W/m2
08:09 0.5 °F /  -17.5 °C -2.7 °F /  -19.3 °C 30.08in /  1018.5hPa East 10.0mph /  16.1km/h 18.0mph /  29km/h 86% 0.00in /  0mm 7.00 W/m2
08:14 0.7 °F /  -17.4 °C -2.5 °F /  -19.2 °C 30.08in /  1018.5hPa East 15.0mph /  24.1km/h 18.0mph /  29km/h 86% 0.00in /  0mm 11.00 W/m2
08:19 0.8 °F /  -17.3 °C -2.4 °F /  -19.1 °C 30.08in /  1018.5hPa East 11.0mph /  17.7km/h 19.0mph /  30.6km/h 86% 0.00in /  0mm 11.00 W/m2
08:24 0.8 °F /  -17.3 °C -2.4 °F /  -19.1 °C 30.08in /  1018.5hPa ESE 14.0mph /  22.5km/h 19.0mph /  30.6km/h 86% 0.00in /  0mm 12.00 W/m2
08:29 0.8 °F /  -17.3 °C -2.4 °F /  -19.1 °C 30.08in /  1018.5hPa East 10.0mph /  16.1km/h 18.0mph /  29km/h 86% 0.00in /  0mm 14.00 W/m2
08:34 0.9 °F /  -17.3 °C -2.3 °F /  -19.1 °C 30.09in /  1018.8hPa East 11.0mph /  17.7km/h 17.0mph /  27.4km/h 86% 0.00in /  0mm 14.00 W/m2
08:39 0.9 °F /  -17.3 °C -2.3 °F /  -19.1 °C 30.09in /  1018.8hPa ESE 7.0mph /  11.3km/h 17.0mph /  27.4km/h 86% 0.00in /  0mm 11.00 W/m2
08:44 1.0 °F /  -17.2 °C -2.2 °F /  -19 °C 30.09in /  1018.8hPa East 7.0mph /  11.3km/h 14.0mph /  22.5km/h 86% 0.00in /  0mm 11.00 W/m2
08:49 1.1 °F /  -17.2 °C -2.1 °F /  -18.9 °C 30.09in /  1018.8hPa ENE 7.0mph /  11.3km/h 15.0mph /  24.1km/h 86% 0.00in /  0mm 14.00 W/m2
08:54 1.2 °F /  -17.1 °C -2.0 °F /  -18.9 °C 30.09in /  1018.8hPa ESE 12.0mph /  19.3km/h 15.0mph /  24.1km/h 86% 0.00in /  0mm 18.00 W/m2
08:59 1.3 °F /  -17.1 °C -1.9 °F /  -18.8 °C 30.09in /  1018.8hPa East 9.0mph /  14.5km/h 15.0mph /  24.1km/h 86% 0.00in /  0mm 30.00 W/m2
09:04 1.4 °F /  -17 °C -1.8 °F /  -18.8 °C 30.09in /  1018.8hPa East 11.0mph /  17.7km/h 15.0mph /  24.1km/h 86% 0.00in /  0mm 32.00 W/m2
09:09 1.5 °F /  -16.9 °C -1.7 °F /  -18.7 °C 30.08in /  1018.5hPa East 8.0mph /  12.9km/h 14.0mph /  22.5km/h 86% 0.00in /  0mm 32.00 W/m2
09:14 1.6 °F /  -16.9 °C -1.6 °F /  -18.7 °C 30.09in /  1018.8hPa East 11.0mph /  17.7km/h 16.0mph /  25.7km/h 86% 0.00in /  0mm 35.00 W/m2
09:19 1.6 °F /  -16.9 °C -1.6 °F /  -18.7 °C 30.09in /  1018.8hPa East 6.0mph /  9.7km/h 16.0mph /  25.7km/h 86% 0.00in /  0mm 39.00 W/m2
09:24 1.6 °F /  -16.9 °C -1.6 °F /  -18.7 °C 30.08in /  1018.5hPa East 13.0mph /  20.9km/h 14.0mph /  22.5km/h 86% 0.00in /  0mm 42.00 W/m2
09:29 1.6 °F /  -16.9 °C -1.6 °F /  -18.7 °C 30.08in /  1018.5hPa East 13.0mph /  20.9km/h 16.0mph /  25.7km/h 86% 0.00in /  0mm 53.00 W/m2
09:34 1.7 °F /  -16.8 °C -1.5 °F /  -18.6 °C 30.09in /  1018.8hPa East 13.0mph /  20.9km/h 18.0mph /  29km/h 86% 0.00in /  0mm 65.00 W/m2
09:39 1.8 °F /  -16.8 °C -1.4 °F /  -18.6 °C 30.08in /  1018.5hPa ESE 10.0mph /  16.1km/h 18.0mph /  29km/h 86% 0.00in /  0mm 74.00 W/m2
09:44 1.9 °F /  -16.7 °C -1.3 °F /  -18.5 °C 30.09in /  1018.8hPa East 11.0mph /  17.7km/h 16.0mph /  25.7km/h 86% 0.00in /  0mm 84.00 W/m2
09:49 2.0 °F /  -16.7 °C -1.2 °F /  -18.4 °C 30.08in /  1018.5hPa East 13.0mph /  20.9km/h 17.0mph /  27.4km/h 86% 0.00in /  0mm 77.00 W/m2
09:54 2.0 °F /  -16.7 °C -1.2 °F /  -18.4 °C 30.08in /  1018.5hPa ENE 9.0mph /  14.5km/h 17.0mph /  27.4km/h 86% 0.00in /  0mm 84.00 W/m2
09:59 2.0 °F /  -16.7 °C -1.5 °F /  -18.6 °C 30.08in /  1018.5hPa East 13.0mph /  20.9km/h 17.0mph /  27.4km/h 85% 0.00in /  0mm 98.00 W/m2
10:04 2.1 °F /  -16.6 °C -1.4 °F /  -18.6 °C 30.08in /  1018.5hPa East 10.0mph /  16.1km/h 17.0mph /  27.4km/h 85% 0.00in /  0mm 88.00 W/m2
10:09 2.1 °F /  -16.6 °C -1.4 °F /  -18.6 °C 30.08in /  1018.5hPa East 10.0mph /  16.1km/h 17.0mph /  27.4km/h 85% 0.00in /  0mm 81.00 W/m2
10:14 2.1 °F /  -16.6 °C -1.4 °F /  -18.6 °C 30.08in /  1018.5hPa East 13.0mph /  20.9km/h 19.0mph /  30.6km/h 85% 0.00in /  0mm 81.00 W/m2
10:19 2.1 °F /  -16.6 °C -1.1 °F /  -18.4 °C 30.08in /  1018.5hPa East 10.0mph /  16.1km/h 19.0mph /  30.6km/h 86% 0.00in /  0mm 84.00 W/m2
10:24 2.2 °F /  -16.6 °C -1.0 °F /  -18.3 °C 30.08in /  1018.5hPa ESE 10.0mph /  16.1km/h 19.0mph /  30.6km/h 86% 0.00in /  0mm 88.00 W/m2
10:29 2.3 °F /  -16.5 °C -0.9 °F /  -18.3 °C 30.08in /  1018.5hPa East 10.0mph /  16.1km/h 16.0mph /  25.7km/h 86% 0.00in /  0mm 90.00 W/m2
10:34 2.4 °F /  -16.4 °C -0.8 °F /  -18.2 °C 30.07in /  1018.2hPa East 14.0mph /  22.5km/h 17.0mph /  27.4km/h 86% 0.00in /  0mm 90.00 W/m2
10:39 2.3 °F /  -16.5 °C -0.9 °F /  -18.3 °C 30.07in /  1018.2hPa East 9.0mph /  14.5km/h 17.0mph /  27.4km/h 86% 0.00in /  0mm 95.00 W/m2
10:44 2.4 °F /  -16.4 °C -0.8 °F /  -18.2 °C 30.07in /  1018.2hPa East 10.0mph /  16.1km/h 16.0mph /  25.7km/h 86% 0.00in /  0mm 98.00 W/m2
10:49 2.5 °F /  -16.4 °C -0.7 °F /  -18.2 °C 30.06in /  1017.8hPa ENE 17.0mph /  27.4km/h 19.0mph /  30.6km/h 86% 0.00in /  0mm 105.00 W/m2
10:54 2.6 °F /  -16.3 °C -0.6 °F /  -18.1 °C 30.06in /  1017.8hPa East 11.0mph /  17.7km/h 19.0mph /  30.6km/h 86% 0.00in /  0mm 109.00 W/m2
10:59 2.6 °F /  -16.3 °C -0.6 °F /  -18.1 °C 30.06in /  1017.8hPa ENE 13.0mph /  20.9km/h 19.0mph /  30.6km/h 86% 0.00in /  0mm 109.00 W/m2
11:04 2.7 °F /  -16.3 °C -0.5 °F /  -18.1 °C 30.05in /  1017.5hPa East 7.0mph /  11.3km/h 19.0mph /  30.6km/h 86% 0.00in /  0mm 118.00 W/m2
11:09 2.8 °F /  -16.2 °C -0.4 °F /  -18 °C 30.05in /  1017.5hPa NNE 9.0mph /  14.5km/h 21.0mph /  33.8km/h 86% 0.00in /  0mm 116.00 W/m2
11:14 2.9 °F /  -16.2 °C -0.3 °F /  -17.9 °C 30.05in /  1017.5hPa East 14.0mph /  22.5km/h 21.0mph /  33.8km/h 86% 0.00in /  0mm 116.00 W/m2
11:19 3.0 °F /  -16.1 °C -0.2 °F /  -17.9 °C 30.05in /  1017.5hPa ESE 10.0mph /  16.1km/h 19.0mph /  30.6km/h 86% 0.00in /  0mm 114.00 W/m2
11:24 3.0 °F /  -16.1 °C -0.2 °F /  -17.9 °C 30.05in /  1017.5hPa East 18.0mph /  29km/h 19.0mph /  30.6km/h 86% 0.00in /  0mm 113.00 W/m2
11:29 2.9 °F /  -16.2 °C -0.3 °F /  -17.9 °C 30.05in /  1017.5hPa ENE 10.0mph /  16.1km/h 22.0mph /  35.4km/h 86% 0.00in /  0mm 116.00 W/m2
11:34 3.0 °F /  -16.1 °C 0.0 °F /  -17.8 °C 30.05in /  1017.5hPa East 14.0mph /  22.5km/h 23.0mph /  37km/h 87% 0.00in /  0mm 113.00 W/m2
11:39 3.2 °F /  -16 °C 0.0 °F /  -17.8 °C 30.05in /  1017.5hPa ENE 16.0mph /  25.7km/h 23.0mph /  37km/h 86% 0.00in /  0mm 114.00 W/m2
11:44 3.3 °F /  -15.9 °C 0.1 °F /  -17.7 °C 30.05in /  1017.5hPa ENE 13.0mph /  20.9km/h 22.0mph /  35.4km/h 86% 0.00in /  0mm 118.00 W/m2
11:49 3.5 °F /  -15.8 °C 0.5 °F /  -17.5 °C 30.05in /  1017.5hPa East 13.0mph /  20.9km/h 21.0mph /  33.8km/h 87% 0.00in /  0mm 125.00 W/m2
11:54 3.7 °F /  -15.7 °C 0.7 °F /  -17.4 °C 30.04in /  1017.2hPa East 11.0mph /  17.7km/h 20.0mph /  32.2km/h 87% 0.00in /  0mm 132.00 W/m2
11:59 3.9 °F /  -15.6 °C 0.9 °F /  -17.3 °C 30.05in /  1017.5hPa East 13.0mph /  20.9km/h 21.0mph /  33.8km/h 87% 0.00in /  0mm 134.00 W/m2
12:04 4.1 °F /  -15.5 °C 1.1 °F /  -17.2 °C 30.04in /  1017.2hPa East 11.0mph /  17.7km/h 22.0mph /  35.4km/h 87% 0.00in /  0mm 135.00 W/m2
12:09 4.4 °F /  -15.3 °C 1.4 °F /  -17 °C 30.05in /  1017.5hPa ESE 13.0mph /  20.9km/h 22.0mph /  35.4km/h 87% 0.00in /  0mm 132.00 W/m2
12:14 4.4 °F /  -15.3 °C 1.4 °F /  -17 °C 30.05in /  1017.5hPa ESE 12.0mph /  19.3km/h 21.0mph /  33.8km/h 87% 0.00in /  0mm 134.00 W/m2
12:19 4.5 °F /  -15.3 °C 1.5 °F /  -16.9 °C 30.04in /  1017.2hPa East 14.0mph /  22.5km/h 22.0mph /  35.4km/h 87% 0.00in /  0mm 142.00 W/m2
12:24 4.6 °F /  -15.2 °C 1.6 °F /  -16.9 °C 30.04in /  1017.2hPa East 14.0mph /  22.5km/h 22.0mph /  35.4km/h 87% 0.00in /  0mm 142.00 W/m2
12:29 4.6 °F /  -15.2 °C 1.6 °F /  -16.9 °C 30.04in /  1017.2hPa East 17.0mph /  27.4km/h 20.0mph /  32.2km/h 87% 0.00in /  0mm 142.00 W/m2
12:34 4.5 °F /  -15.3 °C 1.5 °F /  -16.9 °C 30.04in /  1017.2hPa East 14.0mph /  22.5km/h 21.0mph /  33.8km/h 87% 0.00in /  0mm 137.00 W/m2
12:39 4.6 °F /  -15.2 °C 1.6 °F /  -16.9 °C 30.04in /  1017.2hPa ENE 13.0mph /  20.9km/h 21.0mph /  33.8km/h 87% 0.00in /  0mm 134.00 W/m2
12:44 4.8 °F /  -15.1 °C 1.8 °F /  -16.8 °C 30.04in /  1017.2hPa East 13.0mph /  20.9km/h 18.0mph /  29km/h 87% 0.00in /  0mm 125.00 W/m2
12:49 4.9 °F /  -15.1 °C 1.9 °F /  -16.7 °C 30.04in /  1017.2hPa East 15.0mph /  24.1km/h 19.0mph /  30.6km/h 87% 0.00in /  0mm 114.00 W/m2
12:54 4.9 °F /  -15.1 °C 1.9 °F /  -16.7 °C 30.04in /  1017.2hPa East 14.0mph /  22.5km/h 19.0mph /  30.6km/h 87% 0.00in /  0mm 114.00 W/m2
12:59 5.0 °F /  -15 °C 2.0 °F /  -16.7 °C 30.04in /  1017.2hPa East 9.0mph /  14.5km/h 18.0mph /  29km/h 87% 0.00in /  0mm 116.00 W/m2
13:04 5.3 °F /  -14.8 °C 2.3 °F /  -16.5 °C 30.03in /  1016.8hPa ESE 8.0mph /  12.9km/h 18.0mph /  29km/h 87% 0.00in /  0mm 120.00 W/m2
13:09 5.4 °F /  -14.8 °C 2.4 °F /  -16.4 °C 30.04in /  1017.2hPa East 11.0mph /  17.7km/h 17.0mph /  27.4km/h 87% 0.00in /  0mm 116.00 W/m2
13:14 5.6 °F /  -14.7 °C 2.6 °F /  -16.3 °C 30.04in /  1017.2hPa ENE 9.0mph /  14.5km/h 16.0mph /  25.7km/h 87% 0.00in /  0mm 118.00 W/m2
13:19 5.6 °F /  -14.7 °C 2.6 °F /  -16.3 °C 30.04in /  1017.2hPa East 9.0mph /  14.5km/h 15.0mph /  24.1km/h 87% 0.00in /  0mm 121.00 W/m2
13:24 5.7 °F /  -14.6 °C 2.7 °F /  -16.3 °C 30.04in /  1017.2hPa East 18.0mph /  29km/h 18.0mph /  29km/h 87% 0.00in /  0mm 120.00 W/m2
13:29 5.8 °F /  -14.6 °C 2.8 °F /  -16.2 °C 30.04in /  1017.2hPa East 11.0mph /  17.7km/h 18.0mph /  29km/h 87% 0.00in /  0mm 125.00 W/m2
13:34 5.9 °F /  -14.5 °C 2.9 °F /  -16.2 °C 30.03in /  1016.8hPa East 9.0mph /  14.5km/h 18.0mph /  29km/h 87% 0.00in /  0mm 135.00 W/m2
13:39 6.0 °F /  -14.4 °C 3.0 °F /  -16.1 °C 30.04in /  1017.2hPa East 6.0mph /  9.7km/h 17.0mph /  27.4km/h 87% 0.00in /  0mm 130.00 W/m2
13:44 6.2 °F /  -14.3 °C 3.2 °F /  -16 °C 30.04in /  1017.2hPa East 10.0mph /  16.1km/h 17.0mph /  27.4km/h 87% 0.00in /  0mm 128.00 W/m2
13:49 6.4 °F /  -14.2 °C 3.6 °F /  -15.8 °C 30.03in /  1016.8hPa East 5.0mph /  8km/h 12.0mph /  19.3km/h 88% 0.00in /  0mm 130.00 W/m2
13:54 6.6 °F /  -14.1 °C 3.8 °F /  -15.7 °C 30.04in /  1017.2hPa East 6.0mph /  9.7km/h 14.0mph /  22.5km/h 88% 0.00in /  0mm 127.00 W/m2
13:59 6.7 °F /  -14.1 °C 3.9 °F /  -15.6 °C 30.04in /  1017.2hPa East 7.0mph /  11.3km/h 14.0mph /  22.5km/h 88% 0.00in /  0mm 123.00 W/m2
14:04 6.9 °F /  -13.9 °C 4.1 °F /  -15.5 °C 30.03in /  1016.8hPa ESE 10.0mph /  16.1km/h 13.0mph /  20.9km/h 88% 0.00in /  0mm 118.00 W/m2
14:09 7.0 °F /  -13.9 °C 4.2 °F /  -15.4 °C 30.03in /  1016.8hPa East 11.0mph /  17.7km/h 13.0mph /  20.9km/h 88% 0.00in /  0mm 116.00 W/m2
14:14 7.2 °F /  -13.8 °C 4.4 °F /  -15.3 °C 30.03in /  1016.8hPa East 9.0mph /  14.5km/h 13.0mph /  20.9km/h 88% 0.00in /  0mm 120.00 W/m2
14:19 7.2 °F /  -13.8 °C 4.4 °F /  -15.3 °C 30.03in /  1016.8hPa East 7.0mph /  11.3km/h 14.0mph /  22.5km/h 88% 0.00in /  0mm 127.00 W/m2
14:24 7.3 °F /  -13.7 °C 4.5 °F /  -15.3 °C 30.03in /  1016.8hPa East 10.0mph /  16.1km/h 15.0mph /  24.1km/h 88% 0.00in /  0mm 120.00 W/m2
14:29 7.3 °F /  -13.7 °C 4.5 °F /  -15.3 °C 30.03in /  1016.8hPa East 6.0mph /  9.7km/h 15.0mph /  24.1km/h 88% 0.00in /  0mm 116.00 W/m2
14:34 7.4 °F /  -13.7 °C 4.6 °F /  -15.2 °C 30.02in /  1016.5hPa East 8.0mph /  12.9km/h 14.0mph /  22.5km/h 88% 0.00in /  0mm 121.00 W/m2
14:39 7.6 °F /  -13.6 °C 4.8 °F /  -15.1 °C 30.03in /  1016.8hPa East 7.0mph /  11.3km/h 14.0mph /  22.5km/h 88% 0.00in /  0mm 121.00 W/m2
14:44 7.7 °F /  -13.5 °C 4.9 °F /  -15.1 °C 30.02in /  1016.5hPa East 7.0mph /  11.3km/h 11.0mph /  17.7km/h 88% 0.00in /  0mm 123.00 W/m2
14:49 7.8 °F /  -13.4 °C 5.0 °F /  -15 °C 30.03in /  1016.8hPa East 6.0mph /  9.7km/h 10.0mph /  16.1km/h 88% 0.00in /  0mm 127.00 W/m2
14:54 7.8 °F /  -13.4 °C 5.0 °F /  -15 °C 30.02in /  1016.5hPa ESE 4.0mph /  6.4km/h 10.0mph /  16.1km/h 88% 0.00in /  0mm 127.00 W/m2
14:59 8.0 °F /  -13.3 °C 5.2 °F /  -14.9 °C 30.03in /  1016.8hPa East 6.0mph /  9.7km/h 10.0mph /  16.1km/h 88% 0.00in /  0mm 121.00 W/m2
15:04 8.1 °F /  -13.3 °C 5.3 °F /  -14.8 °C 30.02in /  1016.5hPa East 8.0mph /  12.9km/h 13.0mph /  20.9km/h 88% 0.00in /  0mm 116.00 W/m2
15:09 8.1 °F /  -13.3 °C 5.3 °F /  -14.8 °C 30.02in /  1016.5hPa East 8.0mph /  12.9km/h 13.0mph /  20.9km/h 88% 0.00in /  0mm 128.00 W/m2
15:14 8.1 °F /  -13.3 °C 5.3 °F /  -14.8 °C 30.02in /  1016.5hPa East 8.0mph /  12.9km/h 11.0mph /  17.7km/h 88% 0.00in /  0mm 123.00 W/m2
15:19 8.2 °F /  -13.2 °C 5.4 °F /  -14.8 °C 30.02in /  1016.5hPa ENE 5.0mph /  8km/h 10.0mph /  16.1km/h 88% 0.00in /  0mm 116.00 W/m2
15:24 8.4 °F /  -13.1 °C 5.6 °F /  -14.7 °C 30.03in /  1016.8hPa East 8.0mph /  12.9km/h 10.0mph /  16.1km/h 88% 0.00in /  0mm 100.00 W/m2
15:29 8.4 °F /  -13.1 °C 5.6 °F /  -14.7 °C 30.03in /  1016.8hPa East 7.0mph /  11.3km/h 10.0mph /  16.1km/h 88% 0.00in /  0mm 91.00 W/m2
15:34 8.3 °F /  -13.2 °C 5.5 °F /  -14.7 °C 30.03in /  1016.8hPa ESE 8.0mph /  12.9km/h 10.0mph /  16.1km/h 88% 0.00in /  0mm 91.00 W/m2
15:39 8.3 °F /  -13.2 °C 5.5 °F /  -14.7 °C 30.03in /  1016.8hPa East 8.0mph /  12.9km/h 10.0mph /  16.1km/h 88% 0.00in /  0mm 84.00 W/m2
15:44 8.3 °F /  -13.2 °C 5.5 °F /  -14.7 °C 30.04in /  1017.2hPa ESE 5.0mph /  8km/h 10.0mph /  16.1km/h 88% 0.00in /  0mm 77.00 W/m2
15:49 8.3 °F /  -13.2 °C 5.5 °F /  -14.7 °C 30.04in /  1017.2hPa ESE 4.0mph /  6.4km/h 9.0mph /  14.5km/h 88% 0.00in /  0mm 70.00 W/m2
15:54 8.3 °F /  -13.2 °C 5.5 °F /  -14.7 °C 30.04in /  1017.2hPa SE 5.0mph /  8km/h 10.0mph /  16.1km/h 88% 0.00in /  0mm 69.00 W/m2
15:59 8.2 °F /  -13.2 °C 5.4 °F /  -14.8 °C 30.04in /  1017.2hPa ESE 5.0mph /  8km/h 10.0mph /  16.1km/h 88% 0.00in /  0mm 74.00 W/m2
16:04 8.2 °F /  -13.2 °C 5.4 °F /  -14.8 °C 30.04in /  1017.2hPa East 3.0mph /  4.8km/h 9.0mph /  14.5km/h 88% 0.00in /  0mm 77.00 W/m2
16:09 8.4 °F /  -13.1 °C 5.6 °F /  -14.7 °C 30.05in /  1017.5hPa East 6.0mph /  9.7km/h 9.0mph /  14.5km/h 88% 0.00in /  0mm 72.00 W/m2
16:14 8.4 °F /  -13.1 °C 5.6 °F /  -14.7 °C 30.05in /  1017.5hPa East 7.0mph /  11.3km/h 9.0mph /  14.5km/h 88% 0.00in /  0mm 62.00 W/m2
16:19 8.4 °F /  -13.1 °C 5.6 °F /  -14.7 °C 30.05in /  1017.5hPa East 6.0mph /  9.7km/h 9.0mph /  14.5km/h 88% 0.00in /  0mm 58.00 W/m2
16:24 8.4 °F /  -13.1 °C 5.6 °F /  -14.7 °C 30.05in /  1017.5hPa East 2.0mph /  3.2km/h 9.0mph /  14.5km/h 88% 0.00in /  0mm 62.00 W/m2
16:29 8.5 °F /  -13.1 °C 5.7 °F /  -14.6 °C 30.05in /  1017.5hPa ESE 5.0mph /  8km/h 7.0mph /  11.3km/h 88% 0.00in /  0mm 58.00 W/m2
16:34 8.5 °F /  -13.1 °C 5.7 °F /  -14.6 °C 30.05in /  1017.5hPa ESE 5.0mph /  8km/h 7.0mph /  11.3km/h 88% 0.00in /  0mm 54.00 W/m2
16:39 8.5 °F /  -13.1 °C 5.7 °F /  -14.6 °C 30.05in /  1017.5hPa ESE 5.0mph /  8km/h 8.0mph /  12.9km/h 88% 0.00in /  0mm 56.00 W/m2
16:44 8.6 °F /  -13 °C 5.8 °F /  -14.6 °C 30.06in /  1017.8hPa SE 2.0mph /  3.2km/h 8.0mph /  12.9km/h 88% 0.00in /  0mm 60.00 W/m2
16:49 8.7 °F /  -12.9 °C 5.9 °F /  -14.5 °C 30.06in /  1017.8hPa ESE 4.0mph /  6.4km/h 6.0mph /  9.7km/h 88% 0.00in /  0mm 49.00 W/m2
16:54 8.7 °F /  -12.9 °C 5.9 °F /  -14.5 °C 30.06in /  1017.8hPa ESE 3.0mph /  4.8km/h 5.0mph /  8km/h 88% 0.00in /  0mm 40.00 W/m2
16:59 8.7 °F /  -12.9 °C 5.9 °F /  -14.5 °C 30.06in /  1017.8hPa ESE 3.0mph /  4.8km/h 5.0mph /  8km/h 88% 0.00in /  0mm 35.00 W/m2
17:04 8.7 °F /  -12.9 °C 5.9 °F /  -14.5 °C 30.06in /  1017.8hPa ESE 3.0mph /  4.8km/h 4.0mph /  6.4km/h 88% 0.00in /  0mm 30.00 W/m2
17:09 8.6 °F /  -13 °C 5.8 °F /  -14.6 °C 30.06in /  1017.8hPa ESE 3.0mph /  4.8km/h 4.0mph /  6.4km/h 88% 0.00in /  0mm 19.00 W/m2
17:14 8.6 °F /  -13 °C 5.8 °F /  -14.6 °C 30.06in /  1017.8hPa ESE 3.0mph /  4.8km/h 4.0mph /  6.4km/h 88% 0.00in /  0mm 14.00 W/m2
17:19 8.6 °F /  -13 °C 5.8 °F /  -14.6 °C 30.06in /  1017.8hPa ESE 2.0mph /  3.2km/h 4.0mph /  6.4km/h 88% 0.00in /  0mm 12.00 W/m2
17:24 8.6 °F /  -13 °C 5.8 °F /  -14.6 °C 30.06in /  1017.8hPa ESE 1.0mph /  1.6km/h 4.0mph /  6.4km/h 88% 0.00in /  0mm 12.00 W/m2
17:29 8.6 °F /  -13 °C 5.8 °F /  -14.6 °C 30.07in /  1018.2hPa ESE 2.0mph /  3.2km/h 3.0mph /  4.8km/h 88% 0.00in /  0mm 11.00 W/m2
17:34 8.6 °F /  -13 °C 5.8 °F /  -14.6 °C 30.07in /  1018.2hPa ESE 2.0mph /  3.2km/h 3.0mph /  4.8km/h 88% 0.00in /  0mm 11.00 W/m2
17:39 8.6 °F /  -13 °C 5.8 °F /  -14.6 °C 30.07in /  1018.2hPa ESE 1.0mph /  1.6km/h 3.0mph /  4.8km/h 88% 0.00in /  0mm 7.00 W/m2
17:44 8.6 °F /  -13 °C 5.8 °F /  -14.6 °C 30.07in /  1018.2hPa Calm   2.0mph /  3.2km/h 88% 0.00in /  0mm 5.00 W/m2
17:49 8.6 °F /  -13 °C 5.8 °F /  -14.6 °C 30.07in /  1018.2hPa Calm   1.0mph /  1.6km/h 88% 0.00in /  0mm 5.00 W/m2
17:54 8.6 °F /  -13 °C 5.8 °F /  -14.6 °C 30.07in /  1018.2hPa Calm     88% 0.00in /  0mm 0.00 W/m2
17:59 8.6 °F /  -13 °C 5.8 °F /  -14.6 °C 30.07in /  1018.2hPa Calm     88% 0.00in /  0mm 0.00 W/m2
18:04 8.6 °F /  -13 °C 5.8 °F /  -14.6 °C 30.07in /  1018.2hPa Calm     88% 0.00in /  0mm 0.00 W/m2
18:09 8.6 °F /  -13 °C 5.8 °F /  -14.6 °C 30.07in /  1018.2hPa Calm     88% 0.00in /  0mm 0.00 W/m2
18:14 8.6 °F /  -13 °C 5.8 °F /  -14.6 °C 30.07in /  1018.2hPa ESE 1.0mph /  1.6km/h 2.0mph /  3.2km/h 88% 0.00in /  0mm 0.00 W/m2
18:19 8.6 °F /  -13 °C 5.8 °F /  -14.6 °C 30.07in /  1018.2hPa ESE 2.0mph /  3.2km/h 2.0mph /  3.2km/h 88% 0.00in /  0mm 0.00 W/m2
18:24 8.5 °F /  -13.1 °C 5.7 °F /  -14.6 °C 30.07in /  1018.2hPa Calm   2.0mph /  3.2km/h 88% 0.00in /  0mm 0.00 W/m2
18:29 8.5 °F /  -13.1 °C 5.7 °F /  -14.6 °C 30.07in /  1018.2hPa Calm   2.0mph /  3.2km/h 88% 0.00in /  0mm 0.00 W/m2
18:34 8.5 °F /  -13.1 °C 5.7 °F /  -14.6 °C 30.07in /  1018.2hPa Calm   2.0mph /  3.2km/h 88% 0.00in /  0mm 0.00 W/m2
18:39 8.4 °F /  -13.1 °C 5.6 °F /  -14.7 °C 30.07in /  1018.2hPa ESE 1.0mph /  1.6km/h 2.0mph /  3.2km/h 88% 0.00in /  0mm 0.00 W/m2
18:44 8.5 °F /  -13.1 °C 5.9 °F /  -14.5 °C 30.07in /  1018.2hPa ESE 1.0mph /  1.6km/h 2.0mph /  3.2km/h 89% 0.00in /  0mm 0.00 W/m2
18:49 8.5 °F /  -13.1 °C 5.9 °F /  -14.5 °C 30.07in /  1018.2hPa Calm   2.0mph /  3.2km/h 89% 0.00in /  0mm 0.00 W/m2
18:54 8.4 °F /  -13.1 °C 5.6 °F /  -14.7 °C 30.07in /  1018.2hPa Calm   1.0mph /  1.6km/h 88% 0.00in /  0mm 0.00 W/m2
18:59 8.3 °F /  -13.2 °C 5.5 °F /  -14.7 °C 30.08in /  1018.5hPa Calm     88% 0.00in /  0mm 0.00 W/m2
19:04 8.2 °F /  -13.2 °C 5.4 °F /  -14.8 °C 30.08in /  1018.5hPa ESE 1.0mph /  1.6km/h 1.0mph /  1.6km/h 88% 0.00in /  0mm 0.00 W/m2
19:09 8.2 °F /  -13.2 °C 5.4 °F /  -14.8 °C 30.08in /  1018.5hPa ESE 2.0mph /  3.2km/h 2.0mph /  3.2km/h 88% 0.00in /  0mm 0.00 W/m2
19:14 8.1 °F /  -13.3 °C 5.3 °F /  -14.8 °C 30.08in /  1018.5hPa ESE 1.0mph /  1.6km/h 3.0mph /  4.8km/h 88% 0.00in /  0mm 0.00 W/m2
19:19 8.0 °F /  -13.3 °C 5.2 °F /  -14.9 °C 30.09in /  1018.8hPa WSW 2.0mph /  3.2km/h 3.0mph /  4.8km/h 88% 0.00in /  0mm 0.00 W/m2
19:24 8.0 °F /  -13.3 °C 5.2 °F /  -14.9 °C 30.09in /  1018.8hPa West 2.0mph /  3.2km/h 3.0mph /  4.8km/h 88% 0.00in /  0mm 0.00 W/m2
19:29 8.0 °F /  -13.3 °C 5.4 °F /  -14.8 °C 30.09in /  1018.8hPa West 3.0mph /  4.8km/h 3.0mph /  4.8km/h 89% 0.00in /  0mm 0.00 W/m2
19:34 7.8 °F /  -13.4 °C 5.2 °F /  -14.9 °C 30.09in /  1018.8hPa West 3.0mph /  4.8km/h 4.0mph /  6.4km/h 89% 0.00in /  0mm 0.00 W/m2
19:39 7.8 °F /  -13.4 °C 5.0 °F /  -15 °C 30.09in /  1018.8hPa West 3.0mph /  4.8km/h 4.0mph /  6.4km/h 88% 0.00in /  0mm 0.00 W/m2
19:44 7.8 °F /  -13.4 °C 5.2 °F /  -14.9 °C 30.09in /  1018.8hPa WNW 3.0mph /  4.8km/h 4.0mph /  6.4km/h 89% 0.00in /  0mm 0.00 W/m2
19:49 7.8 °F /  -13.4 °C 5.2 °F /  -14.9 °C 30.09in /  1018.8hPa West 3.0mph /  4.8km/h 4.0mph /  6.4km/h 89% 0.00in /  0mm 0.00 W/m2
19:54 7.8 °F /  -13.4 °C 5.2 °F /  -14.9 °C 30.09in /  1018.8hPa West 3.0mph /  4.8km/h 4.0mph /  6.4km/h 89% 0.00in /  0mm 0.00 W/m2
19:59 7.7 °F /  -13.5 °C 5.1 °F /  -14.9 °C 30.09in /  1018.8hPa West 2.0mph /  3.2km/h 4.0mph /  6.4km/h 89% 0.00in /  0mm 0.00 W/m2
20:04 7.7 °F /  -13.5 °C 5.1 °F /  -14.9 °C 30.09in /  1018.8hPa West 3.0mph /  4.8km/h 5.0mph /  8km/h 89% 0.00in /  0mm 0.00 W/m2
20:09 7.6 °F /  -13.6 °C 5.0 °F /  -15 °C 30.09in /  1018.8hPa West 2.0mph /  3.2km/h 5.0mph /  8km/h 89% 0.00in /  0mm 0.00 W/m2
20:14 7.5 °F /  -13.6 °C 4.9 °F /  -15.1 °C 30.09in /  1018.8hPa West 3.0mph /  4.8km/h 4.0mph /  6.4km/h 89% 0.00in /  0mm 0.00 W/m2
20:19 7.6 °F /  -13.6 °C 5.0 °F /  -15 °C 30.09in /  1018.8hPa West 4.0mph /  6.4km/h 4.0mph /  6.4km/h 89% 0.00in /  0mm 0.00 W/m2
20:24 7.5 °F /  -13.6 °C 4.9 °F /  -15.1 °C 30.09in /  1018.8hPa West 4.0mph /  6.4km/h 5.0mph /  8km/h 89% 0.00in /  0mm 0.00 W/m2
20:29 7.5 °F /  -13.6 °C 4.9 °F /  -15.1 °C 30.09in /  1018.8hPa WNW 4.0mph /  6.4km/h 6.0mph /  9.7km/h 89% 0.00in /  0mm 0.00 W/m2
20:34 7.4 °F /  -13.7 °C 4.8 °F /  -15.1 °C 30.09in /  1018.8hPa WNW 4.0mph /  6.4km/h 6.0mph /  9.7km/h 89% 0.00in /  0mm 0.00 W/m2
20:39 7.4 °F /  -13.7 °C 4.8 °F /  -15.1 °C 30.09in /  1018.8hPa WNW 3.0mph /  4.8km/h 6.0mph /  9.7km/h 89% 0.00in /  0mm 0.00 W/m2
20:44 7.3 °F /  -13.7 °C 4.7 °F /  -15.2 °C 30.09in /  1018.8hPa WNW 3.0mph /  4.8km/h 5.0mph /  8km/h 89% 0.00in /  0mm 0.00 W/m2
20:49 7.3 °F /  -13.7 °C 4.7 °F /  -15.2 °C 30.09in /  1018.8hPa WNW 4.0mph /  6.4km/h 5.0mph /  8km/h 89% 0.00in /  0mm 0.00 W/m2
20:54 7.3 °F /  -13.7 °C 4.5 °F /  -15.3 °C 30.09in /  1018.8hPa WNW 3.0mph /  4.8km/h 5.0mph /  8km/h 88% 0.00in /  0mm 0.00 W/m2
20:59 7.2 °F /  -13.8 °C 4.6 °F /  -15.2 °C 30.09in /  1018.8hPa WNW 3.0mph /  4.8km/h 5.0mph /  8km/h 89% 0.00in /  0mm 0.00 W/m2
21:04 7.2 °F /  -13.8 °C 4.4 °F /  -15.3 °C 30.09in /  1018.8hPa WNW 3.0mph /  4.8km/h 5.0mph /  8km/h 88% 0.00in /  0mm 0.00 W/m2
21:09 7.2 °F /  -13.8 °C 4.6 °F /  -15.2 °C 30.09in /  1018.8hPa WNW 5.0mph /  8km/h 6.0mph /  9.7km/h 89% 0.00in /  0mm 0.00 W/m2
21:14 7.1 °F /  -13.8 °C 4.3 °F /  -15.4 °C 30.10in /  1019.2hPa West 5.0mph /  8km/h 9.0mph /  14.5km/h 88% 0.00in /  0mm 0.00 W/m2
21:19 7.0 °F /  -13.9 °C 4.2 °F /  -15.4 °C 30.10in /  1019.2hPa WNW 7.0mph /  11.3km/h 10.0mph /  16.1km/h 88% 0.00in /  0mm 0.00 W/m2
21:24 6.8 °F /  -14 °C 4.0 °F /  -15.6 °C 30.09in /  1018.8hPa WNW 9.0mph /  14.5km/h 11.0mph /  17.7km/h 88% 0.00in /  0mm 0.00 W/m2
21:29 6.8 °F /  -14 °C 4.0 °F /  -15.6 °C 30.10in /  1019.2hPa WNW 4.0mph /  6.4km/h 11.0mph /  17.7km/h 88% 0.00in /  0mm 0.00 W/m2
21:34 6.7 °F /  -14.1 °C 3.9 °F /  -15.6 °C 30.10in /  1019.2hPa WNW 6.0mph /  9.7km/h 10.0mph /  16.1km/h 88% 0.00in /  0mm 0.00 W/m2
21:39 6.5 °F /  -14.2 °C 3.7 °F /  -15.7 °C 30.10in /  1019.2hPa WNW 7.0mph /  11.3km/h 9.0mph /  14.5km/h 88% 0.00in /  0mm 0.00 W/m2
21:44 6.3 °F /  -14.3 °C 3.5 °F /  -15.8 °C 30.10in /  1019.2hPa WNW 7.0mph /  11.3km/h 9.0mph /  14.5km/h 88% 0.00in /  0mm 0.00 W/m2
21:49 6.0 °F /  -14.4 °C 3.0 °F /  -16.1 °C 30.10in /  1019.2hPa WNW 6.0mph /  9.7km/h 9.0mph /  14.5km/h 87% 0.00in /  0mm 0.00 W/m2
21:54 5.5 °F /  -14.7 °C 2.5 °F /  -16.4 °C 30.11in /  1019.5hPa WNW 7.0mph /  11.3km/h 9.0mph /  14.5km/h 87% 0.00in /  0mm 0.00 W/m2
21:59 4.9 °F /  -15.1 °C 1.9 °F /  -16.7 °C 30.11in /  1019.5hPa WNW 6.0mph /  9.7km/h 9.0mph /  14.5km/h 87% 0.00in /  0mm 0.00 W/m2
22:04 4.1 °F /  -15.5 °C 0.8 °F /  -17.3 °C 30.11in /  1019.5hPa West 6.0mph /  9.7km/h 9.0mph /  14.5km/h 86% 0.00in /  0mm 0.00 W/m2
22:09 3.5 °F /  -15.8 °C 0.3 °F /  -17.6 °C 30.11in /  1019.5hPa WNW 8.0mph /  12.9km/h 10.0mph /  16.1km/h 86% 0.00in /  0mm 0.00 W/m2
22:14 2.9 °F /  -16.2 °C -0.3 °F /  -17.9 °C 30.11in /  1019.5hPa WNW 7.0mph /  11.3km/h 10.0mph /  16.1km/h 86% 0.00in /  0mm 0.00 W/m2
22:19 2.4 °F /  -16.4 °C -0.8 °F /  -18.2 °C 30.12in /  1019.9hPa WNW 5.0mph /  8km/h 10.0mph /  16.1km/h 86% 0.00in /  0mm 0.00 W/m2
22:24 2.0 °F /  -16.7 °C -1.2 °F /  -18.4 °C 30.12in /  1019.9hPa West 7.0mph /  11.3km/h 8.0mph /  12.9km/h 86% 0.00in /  0mm 0.00 W/m2
22:29 1.4 °F /  -17 °C -1.8 °F /  -18.8 °C 30.12in /  1019.9hPa West 6.0mph /  9.7km/h 8.0mph /  12.9km/h 86% 0.00in /  0mm 0.00 W/m2
22:34 1.3 °F /  -17.1 °C -1.9 °F /  -18.8 °C 30.11in /  1019.5hPa WNW 6.0mph /  9.7km/h 8.0mph /  12.9km/h 86% 0.00in /  0mm 0.00 W/m2
22:39 1.7 °F /  -16.8 °C -1.5 °F /  -18.6 °C 30.11in /  1019.5hPa WNW 6.0mph /  9.7km/h 9.0mph /  14.5km/h 86% 0.00in /  0mm 0.00 W/m2
22:44 1.9 °F /  -16.7 °C -1.3 °F /  -18.5 °C 30.11in /  1019.5hPa WNW 5.0mph /  8km/h 10.0mph /  16.1km/h 86% 0.00in /  0mm 0.00 W/m2
22:49 1.8 °F /  -16.8 °C -1.4 °F /  -18.6 °C 30.11in /  1019.5hPa WNW 5.0mph /  8km/h 10.0mph /  16.1km/h 86% 0.00in /  0mm 0.00 W/m2
22:54 0.7 °F /  -17.4 °C -2.7 °F /  -19.3 °C 30.11in /  1019.5hPa West 6.0mph /  9.7km/h 7.0mph /  11.3km/h 85% 0.00in /  0mm 0.00 W/m2
22:59 -0.4 °F /  -18 °C -4.1 °F /  -20.1 °C 30.11in /  1019.5hPa WNW 4.0mph /  6.4km/h 7.0mph /  11.3km/h 84% 0.00in /  0mm 0.00 W/m2
23:04 -0.7 °F /  -18.2 °C -4.1 °F /  -20.1 °C 30.11in /  1019.5hPa WNW 6.0mph /  9.7km/h 8.0mph /  12.9km/h 85% 0.00in /  0mm 0.00 W/m2
23:09 -0.1 °F /  -17.8 °C -3.3 °F /  -19.6 °C 30.11in /  1019.5hPa WNW 6.0mph /  9.7km/h 9.0mph /  14.5km/h 86% 0.00in /  0mm 0.00 W/m2
23:14 -0.6 °F /  -18.1 °C -4.0 °F /  -20 °C 30.11in /  1019.5hPa WNW 5.0mph /  8km/h 9.0mph /  14.5km/h 85% 0.00in /  0mm 0.00 W/m2
23:19 -0.9 °F /  -18.3 °C -4.3 °F /  -20.2 °C 30.11in /  1019.5hPa NW 5.0mph /  8km/h 9.0mph /  14.5km/h 85% 0.00in /  0mm 0.00 W/m2
23:24 -1.0 °F /  -18.3 °C -4.4 °F /  -20.2 °C 30.11in /  1019.5hPa WNW 5.0mph /  8km/h 9.0mph /  14.5km/h 85% 0.00in /  0mm 0.00 W/m2
23:29 -1.6 °F /  -18.7 °C -5.0 °F /  -20.6 °C 30.11in /  1019.5hPa WNW 5.0mph /  8km/h 8.0mph /  12.9km/h 85% 0.00in /  0mm 0.00 W/m2
23:34 -2.1 °F /  -18.9 °C -5.5 °F /  -20.8 °C 30.11in /  1019.5hPa WNW 7.0mph /  11.3km/h 8.0mph /  12.9km/h 85% 0.00in /  0mm 0.00 W/m2
23:39 -2.2 °F /  -19 °C -5.6 °F /  -20.9 °C 30.11in /  1019.5hPa WNW 5.0mph /  8km/h 7.0mph /  11.3km/h 85% 0.00in /  0mm 0.00 W/m2
23:44 -2.3 °F /  -19.1 °C -5.7 °F /  -20.9 °C 30.11in /  1019.5hPa WNW 5.0mph /  8km/h 7.0mph /  11.3km/h 85% 0.00in /  0mm 0.00 W/m2
23:49 -2.4 °F /  -19.1 °C -5.8 °F /  -21 °C 30.11in /  1019.5hPa WNW 3.0mph /  4.8km/h 7.0mph /  11.3km/h 85% 0.00in /  0mm 0.00 W/m2
23:54 -3.2 °F /  -19.6 °C -6.8 °F /  -21.6 °C 30.11in /  1019.5hPa WNW 4.0mph /  6.4km/h 7.0mph /  11.3km/h 84% 0.00in /  0mm 0.00 W/m2
23:59 -3.9 °F /  -19.9 °C -7.5 °F /  -21.9 °C 30.11in /  1019.5hPa WNW 7.0mph /  11.3km/h 7.0mph /  11.3km/h 84% 0.00in /  0mm 0.00 W/m2
Bismarck, North Dakota, USA
Compliments of Weather Underground - 4 mb